Detalii statie FIRST FARMS FAUREI [00001992]

Toti senzorii

Date Temperatura solului [C]Precipitatii [mm]Voltaj baterie [mV]Leaf Wetness [Min]HC Air temperature [C]HC Relative humidity [%]Punctul de roua [C]
medieminmaxsumaultimatimpmedieminmaxmediemediemin
2019-08-15 19:00:00 28.3 28.1 28.5 0 6922 21.92 21.13 22.59 53.33 11.8 11.6
2019-08-15 20:00:00 27.8 27.6 28.1 0 6854 20.14 19.44 20.93 59.33 11.7 11.6
2019-08-15 21:00:00 27.3 26.9 27.6 0 6854 18.88 18.49 19.34 63.63 11.6 11.5
2019-08-15 22:00:00 26.7 26.5 27.1 0 6844 18.3 18.1 18.53 65.31 11.5 11.4
2019-08-15 23:00:00 26.3 26.1 26.5 0 6826 18.02 17.94 18.13 66.13 11.5 11.3
2019-08-16 00:00:00 25.8 25.7 26.1 0 6834 17.87 17.81 18.01 68.03 11.7 11.6
2019-08-16 01:00:00 25.4 25.2 25.7 0 6826 17.65 17.51 17.8 68.75 11.6 11.5
2019-08-16 02:00:00 25.1 25.1 25.3 0 6816 17.7 17.66 17.74 68.9 11.7 11.6
2019-08-16 03:00:00 24.8 24.6 25 0 6796 17.61 17.13 17.8 70.38 11.9 11.7
2019-08-16 04:00:00 24.6 24.4 24.8 0 6786 17.47 17.39 17.54 71.69 12.1 11.9
2019-08-16 05:00:00 24.4 24.3 24.7 0 6786 17.24 17.02 17.48 72.56 12.1 11.9
2019-08-16 06:00:00 24.2 24 24.3 0 6756 17.04 17 17.13 72.8 11.9 11.7
2019-08-16 07:00:00 24 23.9 24.1 0 6942 17.48 17.16 18.34 67.75 11.3 10.9
2019-08-16 08:00:00 23.9 23.7 24.1 0 7128 19.04 18.59 19.34 57.84 10.3 10.1
2019-08-16 09:00:00 23.8 23.7 24 0 7166 19.75 19.28 20.03 52.76 9.6 8.6
2019-08-16 10:00:00 23.9 23.8 24.1 0 7186 20.1 19.89 20.48 49.23 8.9 8.6
2019-08-16 11:00:00 24.1 23.9 24.3 0 7186 20.77 20.35 21.3 46.27 8.6 8.3
2019-08-16 12:00:00 24.3 24.2 24.7 0 7186 22.5 21.45 23.85 41.04 8.4 7.8
2019-08-16 13:00:00 24.8 24.6 25.2 0 7196 24.13 23.08 25.79 36.54 8 7.3
2019-08-16 14:00:00 25.5 25.1 26.1 0 7186 25.92 25.37 26.83 34.54 8.8 8
2019-08-16 15:00:00 26.4 26.1 26.9 0 7196 26.57 25.92 27.01 33.22 8.8 8.6
2019-08-16 16:00:00 27.1 26.9 27.5 0 7186 26.77 26.05 27.59 33.5 9.1 8.9
2019-08-16 17:00:00 27.6 27.4 27.9 0 7176 26.31 25.5 27.38 35.65 9.6 8.8
2019-08-16 18:00:00 27.7 27.7 27.9 0 7020 25.03 23.68 25.96 39.01 9.8 9.6
2019-08-16 19:00:00 27.6 27.4 27.9 0 6884 23.1 22.66 23.62 43.91 9.8 9.7
2019-08-16 20:00:00 27.1 26.9 27.4 0 6854 22.14 21.89 22.56 46.19 9.8 9.7
2019-08-16 21:00:00 26.7 26.4 27.1 0 6844 20.76 19.34 21.74 50.81 10 9.8
2019-08-16 22:00:00 26.3 26.1 26.6 0 6844 19.55 19.31 19.97 57.08 10.6 10
2019-08-16 23:00:00 25.9 25.8 26.1 0 6834 19.97 19.73 20.11 58.92 11.5 11.5
2019-08-17 00:00:00 25.6 25.4 25.9 0 6826 19.54 19.47 19.65 59.7 11.3 11.3
2019-08-17 01:00:00 25.3 25.1 25.5 0 6816 19.17 18.78 19.64 61.67 11.4 11.3
2019-08-17 02:00:00 25 24.8 25.2 0 6826 18.93 18.55 19.45 62.19 11.3 11.2
2019-08-17 03:00:00 24.7 24.6 24.9 0 6806 19.4 19 19.54 59 11 10.8
2019-08-17 04:00:00 24.5 24.4 24.6 0 6806 18.47 17.91 18.97 62.4 11 10.9
2019-08-17 05:00:00 24.3 24.1 24.5 0 6796 17.2 16.36 17.81 67.83 11 10.9
2019-08-17 06:00:00 24 23.9 24.1 0 6796 16.7 16.29 17.42 71.6 11.4 10.9
2019-08-17 07:00:00 23.7 23.6 23.8 0 7050 19 17.56 20.06 64.55 11.9 11.8
2019-08-17 08:00:00 23.6 23.6 23.8 0 7176 21.1 20.27 21.79 53.39 11 9.6
2019-08-17 09:00:00 23.8 23.7 24.1 0 7196 22.41 21.94 22.75 43.83 9.2 8.6
2019-08-17 10:00:00 24.2 24 24.5 0 7196 24.24 23.04 25.93 38.47 8.9 7.3
2019-08-17 11:00:00 24.9 24.4 25.4 0 7186 26.12 24.77 27.31 30.94 7.3 6.6
2019-08-17 12:00:00 26 25.6 26.5 0 7186 26.25 25.14 27.4 28.43 6.2 5.6
2019-08-17 13:00:00 27 26.6 27.5 0 7186 26.96 25.55 27.88 27.28 6.2 5.7
2019-08-17 14:00:00 27.5 27.4 27.9 0 7196 26.75 25.96 27.53 29.02 7 6.5
2019-08-17 15:00:00 27.8 27.6 28 0 7186 27.11 26.01 28.29 29.27 7.4 7.1
2019-08-17 16:00:00 28.2 28 28.5 0 7166 27.95 26.81 29.1 28.17 7.5 7.3
2019-08-17 17:00:00 28.4 28.3 28.6 0 7176 26.93 26.58 27.43 29.87 7.5 7.2